sensor_id;sensor_type;location;lat;lon;timestamp;P1;durP1;ratioP1;P2;durP2;ratioP2
12118;SDS011;6123;48.864;9.200;2022-12-01T00:00:55;16.50;;;14.68;;
12118;SDS011;6123;48.864;9.200;2022-12-01T00:03:21;17.13;;;14.73;;
12118;SDS011;6123;48.864;9.200;2022-12-01T00:05:49;17.90;;;14.63;;
12118;SDS011;6123;48.864;9.200;2022-12-01T00:08:25;17.50;;;15.63;;
12118;SDS011;6123;48.864;9.200;2022-12-01T00:10:51;15.30;;;13.70;;
12118;SDS011;6123;48.864;9.200;2022-12-01T00:13:20;17.55;;;15.75;;
12118;SDS011;6123;48.864;9.200;2022-12-01T00:15:46;15.75;;;14.13;;
12118;SDS011;6123;48.864;9.200;2022-12-01T00:18:11;17.17;;;15.38;;
12118;SDS011;6123;48.864;9.200;2022-12-01T00:20:39;18.05;;;15.35;;
12118;SDS011;6123;48.864;9.200;2022-12-01T00:23:07;16.70;;;14.90;;
12118;SDS011;6123;48.864;9.200;2022-12-01T00:25:33;16.33;;;14.13;;
12118;SDS011;6123;48.864;9.200;2022-12-01T00:28:01;17.13;;;15.32;;
12118;SDS011;6123;48.864;9.200;2022-12-01T00:30:27;15.73;;;13.38;;
12118;SDS011;6123;48.864;9.200;2022-12-01T00:32:55;16.17;;;14.48;;
12118;SDS011;6123;48.864;9.200;2022-12-01T00:35:20;15.95;;;14.32;;
12118;SDS011;6123;48.864;9.200;2022-12-01T00:37:46;16.08;;;14.30;;
12118;SDS011;6123;48.864;9.200;2022-12-01T00:40:12;17.67;;;15.88;;
12118;SDS011;6123;48.864;9.200;2022-12-01T00:42:37;15.90;;;14.30;;
12118;SDS011;6123;48.864;9.200;2022-12-01T00:45:05;16.60;;;14.95;;
12118;SDS011;6123;48.864;9.200;2022-12-01T00:47:31;16.48;;;14.77;;
12118;SDS011;6123;48.864;9.200;2022-12-01T00:49:57;15.85;;;14.15;;
12118;SDS011;6123;48.864;9.200;2022-12-01T00:52:23;15.75;;;14.05;;
12118;SDS011;6123;48.864;9.200;2022-12-01T00:54:48;15.80;;;14.20;;
12118;SDS011;6123;48.864;9.200;2022-12-01T00:57:14;16.02;;;14.30;;
12118;SDS011;6123;48.864;9.200;2022-12-01T00:59:39;16.08;;;14.32;;
12118;SDS011;6123;48.864;9.200;2022-12-01T01:02:08;16.73;;;14.63;;
12118;SDS011;6123;48.864;9.200;2022-12-01T01:04:34;16.33;;;14.63;;
12118;SDS011;6123;48.864;9.200;2022-12-01T01:07:00;16.50;;;14.70;;
12118;SDS011;6123;48.864;9.200;2022-12-01T01:09:25;15.23;;;13.52;;
12118;SDS011;6123;48.864;9.200;2022-12-01T01:11:53;17.15;;;15.35;;
12118;SDS011;6123;48.864;9.200;2022-12-01T01:14:21;16.20;;;14.38;;
12118;SDS011;6123;48.864;9.200;2022-12-01T01:16:48;15.75;;;14.00;;
12118;SDS011;6123;48.864;9.200;2022-12-01T01:19:14;15.48;;;13.45;;
12118;SDS011;6123;48.864;9.200;2022-12-01T01:21:42;17.42;;;15.05;;
12118;SDS011;6123;48.864;9.200;2022-12-01T01:24:08;16.88;;;14.73;;
12118;SDS011;6123;48.864;9.200;2022-12-01T01:26:34;15.50;;;13.90;;
12118;SDS011;6123;48.864;9.200;2022-12-01T01:29:04;15.55;;;13.95;;
12118;SDS011;6123;48.864;9.200;2022-12-01T01:31:32;17.20;;;14.75;;
12118;SDS011;6123;48.864;9.200;2022-12-01T01:33:58;15.27;;;13.68;;
12118;SDS011;6123;48.864;9.200;2022-12-01T01:36:24;16.08;;;14.35;;
12118;SDS011;6123;48.864;9.200;2022-12-01T01:38:53;15.60;;;14.00;;
12118;SDS011;6123;48.864;9.200;2022-12-01T01:41:19;16.05;;;14.45;;
12118;SDS011;6123;48.864;9.200;2022-12-01T01:44:49;15.75;;;14.10;;
12118;SDS011;6123;48.864;9.200;2022-12-01T01:47:00;15.05;;;13.05;;
12118;SDS011;6123;48.864;9.200;2022-12-01T01:49:26;14.85;;;13.30;;
12118;SDS011;6123;48.864;9.200;2022-12-01T01:51:51;15.50;;;13.30;;
12118;SDS011;6123;48.864;9.200;2022-12-01T01:56:56;14.23;;;12.48;;
12118;SDS011;6123;48.864;9.200;2022-12-01T01:59:27;15.07;;;13.27;;
12118;SDS011;6123;48.864;9.200;2022-12-01T02:02:06;14.38;;;12.93;;
12118;SDS011;6123;48.864;9.200;2022-12-01T02:04:34;14.45;;;12.95;;
12118;SDS011;6123;48.864;9.200;2022-12-01T02:07:00;15.23;;;13.07;;
12118;SDS011;6123;48.864;9.200;2022-12-01T02:09:26;13.82;;;12.40;;
12118;SDS011;6123;48.864;9.200;2022-12-01T02:32:27;13.23;;;11.60;;
12118;SDS011;6123;48.864;9.200;2022-12-01T02:46:55;12.25;;;10.95;;
12118;SDS011;6123;48.864;9.200;2022-12-01T02:49:06;12.35;;;10.82;;
12118;SDS011;6123;48.864;9.200;2022-12-01T02:51:41;12.40;;;11.10;;
12118;SDS011;6123;48.864;9.200;2022-12-01T02:54:08;11.38;;;10.20;;
12118;SDS011;6123;48.864;9.200;2022-12-01T02:56:36;12.90;;;11.30;;
12118;SDS011;6123;48.864;9.200;2022-12-01T02:59:07;13.43;;;11.90;;
12118;SDS011;6123;48.864;9.200;2022-12-01T03:12:40;13.13;;;11.80;;
12118;SDS011;6123;48.864;9.200;2022-12-01T03:15:32;12.63;;;11.32;;
12118;SDS011;6123;48.864;9.200;2022-12-01T03:18:17;14.57;;;11.85;;
12118;SDS011;6123;48.864;9.200;2022-12-01T03:20:55;13.30;;;11.35;;
12118;SDS011;6123;48.864;9.200;2022-12-01T03:23:36;13.23;;;11.93;;
12118;SDS011;6123;48.864;9.200;2022-12-01T03:26:07;13.52;;;12.13;;
12118;SDS011;6123;48.864;9.200;2022-12-01T03:28:37;13.82;;;12.40;;
12118;SDS011;6123;48.864;9.200;2022-12-01T03:31:07;14.73;;;12.75;;
12118;SDS011;6123;48.864;9.200;2022-12-01T03:33:43;15.13;;;13.35;;
12118;SDS011;6123;48.864;9.200;2022-12-01T03:36:21;14.30;;;12.80;;
12118;SDS011;6123;48.864;9.200;2022-12-01T03:38:53;14.85;;;13.23;;
12118;SDS011;6123;48.864;9.200;2022-12-01T03:41:25;14.20;;;12.70;;
12118;SDS011;6123;48.864;9.200;2022-12-01T03:44:04;14.68;;;13.18;;
12118;SDS011;6123;48.864;9.200;2022-12-01T03:49:14;14.43;;;12.93;;
12118;SDS011;6123;48.864;9.200;2022-12-01T03:51:48;15.07;;;13.05;;
12118;SDS011;6123;48.864;9.200;2022-12-01T03:57:16;14.48;;;12.60;;
12118;SDS011;6123;48.864;9.200;2022-12-01T03:59:48;14.23;;;12.60;;
12118;SDS011;6123;48.864;9.200;2022-12-01T04:02:16;15.50;;;13.80;;
12118;SDS011;6123;48.864;9.200;2022-12-01T04:04:45;15.10;;;13.45;;
12118;SDS011;6123;48.864;9.200;2022-12-01T04:07:10;16.55;;;14.45;;
12118;SDS011;6123;48.864;9.200;2022-12-01T04:09:38;15.60;;;13.80;;
12118;SDS011;6123;48.864;9.200;2022-12-01T04:12:08;14.00;;;12.50;;
12118;SDS011;6123;48.864;9.200;2022-12-01T04:14:57;16.33;;;14.40;;
12118;SDS011;6123;48.864;9.200;2022-12-01T04:17:41;15.57;;;13.90;;
12118;SDS011;6123;48.864;9.200;2022-12-01T04:20:08;15.80;;;14.10;;
12118;SDS011;6123;48.864;9.200;2022-12-01T04:22:38;15.93;;;13.60;;
12118;SDS011;6123;48.864;9.200;2022-12-01T04:25:04;16.48;;;14.68;;
12118;SDS011;6123;48.864;9.200;2022-12-01T04:27:30;16.20;;;13.43;;
12118;SDS011;6123;48.864;9.200;2022-12-01T04:29:56;16.35;;;14.55;;
12118;SDS011;6123;48.864;9.200;2022-12-01T04:32:22;15.02;;;13.48;;
12118;SDS011;6123;48.864;9.200;2022-12-01T04:34:47;15.25;;;13.65;;
12118;SDS011;6123;48.864;9.200;2022-12-01T04:37:13;15.80;;;14.20;;
12118;SDS011;6123;48.864;9.200;2022-12-01T04:39:41;16.55;;;14.77;;
12118;SDS011;6123;48.864;9.200;2022-12-01T04:42:08;14.30;;;12.80;;
12118;SDS011;6123;48.864;9.200;2022-12-01T04:44:34;15.45;;;13.85;;
12118;SDS011;6123;48.864;9.200;2022-12-01T04:47:00;15.95;;;14.35;;
12118;SDS011;6123;48.864;9.200;2022-12-01T04:49:26;15.30;;;13.70;;
12118;SDS011;6123;48.864;9.200;2022-12-01T04:51:54;15.70;;;13.98;;
12118;SDS011;6123;48.864;9.200;2022-12-01T04:54:20;16.55;;;14.82;;
12118;SDS011;6123;48.864;9.200;2022-12-01T04:56:46;15.63;;;14.02;;
12118;SDS011;6123;48.864;9.200;2022-12-01T04:59:12;16.05;;;14.35;;
12118;SDS011;6123;48.864;9.200;2022-12-01T05:01:40;15.75;;;14.07;;
12118;SDS011;6123;48.864;9.200;2022-12-01T05:04:05;15.50;;;13.75;;
12118;SDS011;6123;48.864;9.200;2022-12-01T05:06:31;15.13;;;13.52;;
12118;SDS011;6123;48.864;9.200;2022-12-01T05:08:59;16.45;;;14.65;;
12118;SDS011;6123;48.864;9.200;2022-12-01T05:11:27;15.90;;;14.20;;
12118;SDS011;6123;48.864;9.200;2022-12-01T05:13:53;15.38;;;13.77;;
12118;SDS011;6123;48.864;9.200;2022-12-01T05:16:20;16.42;;;14.35;;
12118;SDS011;6123;48.864;9.200;2022-12-01T05:18:50;14.88;;;13.27;;
12118;SDS011;6123;48.864;9.200;2022-12-01T05:21:41;15.98;;;13.25;;
12118;SDS011;6123;48.864;9.200;2022-12-01T05:24:08;15.57;;;13.88;;
12118;SDS011;6123;48.864;9.200;2022-12-01T05:26:37;14.70;;;13.20;;
12118;SDS011;6123;48.864;9.200;2022-12-01T05:29:06;14.73;;;12.60;;
12118;SDS011;6123;48.864;9.200;2022-12-01T05:31:32;16.33;;;14.65;;
12118;SDS011;6123;48.864;9.200;2022-12-01T05:33:58;14.45;;;12.98;;
12118;SDS011;6123;48.864;9.200;2022-12-01T05:36:26;15.00;;;13.40;;
12118;SDS011;6123;48.864;9.200;2022-12-01T05:38:51;14.27;;;12.77;;
12118;SDS011;6123;48.864;9.200;2022-12-01T05:41:18;15.10;;;12.93;;
12118;SDS011;6123;48.864;9.200;2022-12-01T05:43:44;14.30;;;12.80;;
12118;SDS011;6123;48.864;9.200;2022-12-01T05:46:12;14.70;;;13.10;;
12118;SDS011;6123;48.864;9.200;2022-12-01T05:48:37;15.73;;;14.05;;
12118;SDS011;6123;48.864;9.200;2022-12-01T05:51:10;14.75;;;12.50;;
12118;SDS011;6123;48.864;9.200;2022-12-01T05:53:37;16.92;;;13.80;;
12118;SDS011;6123;48.864;9.200;2022-12-01T05:56:06;14.50;;;12.90;;
12118;SDS011;6123;48.864;9.200;2022-12-01T05:58:35;15.10;;;13.50;;
12118;SDS011;6123;48.864;9.200;2022-12-01T06:01:00;15.70;;;12.98;;
12118;SDS011;6123;48.864;9.200;2022-12-01T06:03:26;15.27;;;13.68;;
12118;SDS011;6123;48.864;9.200;2022-12-01T06:05:52;14.82;;;12.95;;
12118;SDS011;6123;48.864;9.200;2022-12-01T06:08:17;14.75;;;13.25;;
12118;SDS011;6123;48.864;9.200;2022-12-01T06:10:43;15.82;;;14.15;;
12118;SDS011;6123;48.864;9.200;2022-12-01T06:13:09;16.75;;;14.73;;
12118;SDS011;6123;48.864;9.200;2022-12-01T06:15:35;14.80;;;13.23;;
12118;SDS011;6123;48.864;9.200;2022-12-01T06:18:03;16.40;;;14.50;;
12118;SDS011;6123;48.864;9.200;2022-12-01T06:20:28;16.90;;;13.82;;
12118;SDS011;6123;48.864;9.200;2022-12-01T06:22:54;16.48;;;14.57;;
12118;SDS011;6123;48.864;9.200;2022-12-01T06:25:20;16.38;;;14.65;;
12118;SDS011;6123;48.864;9.200;2022-12-01T06:27:45;18.60;;;14.90;;
12118;SDS011;6123;48.864;9.200;2022-12-01T06:30:11;15.82;;;14.13;;
12118;SDS011;6123;48.864;9.200;2022-12-01T06:32:37;16.15;;;14.48;;
12118;SDS011;6123;48.864;9.200;2022-12-01T06:35:02;14.90;;;13.30;;
12118;SDS011;6123;48.864;9.200;2022-12-01T06:37:28;16.35;;;14.65;;
12118;SDS011;6123;48.864;9.200;2022-12-01T06:39:56;16.42;;;14.07;;
12118;SDS011;6123;48.864;9.200;2022-12-01T06:42:22;15.02;;;13.52;;
12118;SDS011;6123;48.864;9.200;2022-12-01T06:44:50;15.82;;;14.10;;
12118;SDS011;6123;48.864;9.200;2022-12-01T06:47:16;15.23;;;13.50;;
12118;SDS011;6123;48.864;9.200;2022-12-01T06:49:41;15.40;;;13.52;;
12118;SDS011;6123;48.864;9.200;2022-12-01T06:52:09;15.10;;;13.43;;
12118;SDS011;6123;48.864;9.200;2022-12-01T06:54:37;15.85;;;13.38;;
12118;SDS011;6123;48.864;9.200;2022-12-01T06:57:06;14.85;;;13.25;;
12118;SDS011;6123;48.864;9.200;2022-12-01T06:59:34;16.48;;;14.63;;
12118;SDS011;6123;48.864;9.200;2022-12-01T07:01:59;16.27;;;14.07;;
12118;SDS011;6123;48.864;9.200;2022-12-01T07:04:26;15.55;;;13.50;;
12118;SDS011;6123;48.864;9.200;2022-12-01T07:06:53;15.80;;;14.00;;
12118;SDS011;6123;48.864;9.200;2022-12-01T07:09:21;15.93;;;13.25;;
12118;SDS011;6123;48.864;9.200;2022-12-01T07:11:47;14.63;;;13.13;;
12118;SDS011;6123;48.864;9.200;2022-12-01T07:14:18;15.73;;;14.05;;
12118;SDS011;6123;48.864;9.200;2022-12-01T07:16:46;14.40;;;12.90;;
12118;SDS011;6123;48.864;9.200;2022-12-01T07:19:12;14.43;;;12.65;;
12118;SDS011;6123;48.864;9.200;2022-12-01T07:21:37;15.82;;;13.85;;
12118;SDS011;6123;48.864;9.200;2022-12-01T07:24:03;13.35;;;11.75;;
12118;SDS011;6123;48.864;9.200;2022-12-01T07:26:31;14.13;;;12.63;;
12118;SDS011;6123;48.864;9.200;2022-12-01T07:28:59;16.55;;;14.95;;
12118;SDS011;6123;48.864;9.200;2022-12-01T07:31:27;14.60;;;13.13;;
12118;SDS011;6123;48.864;9.200;2022-12-01T07:33:53;15.07;;;13.38;;
12118;SDS011;6123;48.864;9.200;2022-12-01T07:36:18;13.95;;;12.55;;
12118;SDS011;6123;48.864;9.200;2022-12-01T07:38:48;14.20;;;12.70;;
12118;SDS011;6123;48.864;9.200;2022-12-01T07:41:16;14.85;;;13.15;;
12118;SDS011;6123;48.864;9.200;2022-12-01T07:43:43;14.93;;;12.68;;
12118;SDS011;6123;48.864;9.200;2022-12-01T07:46:11;15.70;;;13.45;;
12118;SDS011;6123;48.864;9.200;2022-12-01T07:48:46;19.15;;;14.93;;
12118;SDS011;6123;48.864;9.200;2022-12-01T07:51:13;16.58;;;14.10;;
12118;SDS011;6123;48.864;9.200;2022-12-01T07:53:43;15.75;;;14.15;;
12118;SDS011;6123;48.864;9.200;2022-12-01T07:56:10;15.95;;;14.10;;
12118;SDS011;6123;48.864;9.200;2022-12-01T07:58:36;14.57;;;13.10;;
12118;SDS011;6123;48.864;9.200;2022-12-01T08:01:17;13.63;;;12.23;;
12118;SDS011;6123;48.864;9.200;2022-12-01T08:03:44;14.77;;;13.27;;
12118;SDS011;6123;48.864;9.200;2022-12-01T08:06:11;13.95;;;12.50;;
12118;SDS011;6123;48.864;9.200;2022-12-01T08:08:38;15.32;;;13.50;;
12118;SDS011;6123;48.864;9.200;2022-12-01T08:11:05;13.30;;;11.90;;
12118;SDS011;6123;48.864;9.200;2022-12-01T08:13:35;14.18;;;12.68;;
12118;SDS011;6123;48.864;9.200;2022-12-01T08:16:03;14.35;;;12.80;;
12118;SDS011;6123;48.864;9.200;2022-12-01T08:18:30;13.55;;;12.18;;
12118;SDS011;6123;48.864;9.200;2022-12-01T08:20:57;13.20;;;11.85;;
12118;SDS011;6123;48.864;9.200;2022-12-01T08:23:23;15.88;;;12.80;;
12118;SDS011;6123;48.864;9.200;2022-12-01T08:25:48;14.77;;;12.65;;
12118;SDS011;6123;48.864;9.200;2022-12-01T08:28:16;13.73;;;12.30;;
12118;SDS011;6123;48.864;9.200;2022-12-01T08:30:42;14.25;;;12.73;;
12118;SDS011;6123;48.864;9.200;2022-12-01T08:33:08;14.85;;;12.20;;
12118;SDS011;6123;48.864;9.200;2022-12-01T08:35:34;14.35;;;12.27;;
12118;SDS011;6123;48.864;9.200;2022-12-01T08:38:00;13.02;;;11.57;;
12118;SDS011;6123;48.864;9.200;2022-12-01T08:40:26;14.27;;;12.45;;
12118;SDS011;6123;48.864;9.200;2022-12-01T08:42:52;14.10;;;12.70;;
12118;SDS011;6123;48.864;9.200;2022-12-01T08:45:18;13.90;;;12.02;;
12118;SDS011;6123;48.864;9.200;2022-12-01T08:47:47;15.02;;;13.45;;
12118;SDS011;6123;48.864;9.200;2022-12-01T08:50:13;13.55;;;12.18;;
12118;SDS011;6123;48.864;9.200;2022-12-01T08:52:41;13.50;;;12.10;;
12118;SDS011;6123;48.864;9.200;2022-12-01T08:55:07;13.73;;;12.35;;
12118;SDS011;6123;48.864;9.200;2022-12-01T08:57:33;16.13;;;13.45;;
12118;SDS011;6123;48.864;9.200;2022-12-01T08:59:59;14.13;;;12.63;;
12118;SDS011;6123;48.864;9.200;2022-12-01T09:02:24;14.43;;;12.98;;
12118;SDS011;6123;48.864;9.200;2022-12-01T09:04:50;14.25;;;12.85;;
12118;SDS011;6123;48.864;9.200;2022-12-01T09:07:16;14.43;;;12.88;;
12118;SDS011;6123;48.864;9.200;2022-12-01T09:09:43;14.65;;;13.10;;
12118;SDS011;6123;48.864;9.200;2022-12-01T09:12:10;13.82;;;12.40;;
12118;SDS011;6123;48.864;9.200;2022-12-01T09:14:36;14.15;;;12.75;;
12118;SDS011;6123;48.864;9.200;2022-12-01T09:17:03;14.40;;;13.00;;
12118;SDS011;6123;48.864;9.200;2022-12-01T09:19:32;14.40;;;12.90;;
12118;SDS011;6123;48.864;9.200;2022-12-01T09:22:00;16.70;;;13.82;;
12118;SDS011;6123;48.864;9.200;2022-12-01T09:24:30;15.23;;;12.50;;
12118;SDS011;6123;48.864;9.200;2022-12-01T09:26:58;14.20;;;12.80;;
12118;SDS011;6123;48.864;9.200;2022-12-01T09:29:24;13.57;;;12.27;;
12118;SDS011;6123;48.864;9.200;2022-12-01T09:31:53;15.88;;;12.95;;
12118;SDS011;6123;48.864;9.200;2022-12-01T09:34:22;13.43;;;12.13;;
12118;SDS011;6123;48.864;9.200;2022-12-01T09:36:48;14.85;;;13.20;;
12118;SDS011;6123;48.864;9.200;2022-12-01T09:39:18;14.15;;;12.23;;
12118;SDS011;6123;48.864;9.200;2022-12-01T09:47:08;13.18;;;11.63;;
12118;SDS011;6123;48.864;9.200;2022-12-01T09:52:52;14.82;;;13.32;;
12118;SDS011;6123;48.864;9.200;2022-12-01T09:55:22;14.70;;;13.20;;
12118;SDS011;6123;48.864;9.200;2022-12-01T09:57:53;14.60;;;13.10;;
12118;SDS011;6123;48.864;9.200;2022-12-01T10:00:41;13.55;;;12.15;;
12118;SDS011;6123;48.864;9.200;2022-12-01T10:08:14;15.07;;;13.00;;
12118;SDS011;6123;48.864;9.200;2022-12-01T10:10:44;13.73;;;12.32;;
12118;SDS011;6123;48.864;9.200;2022-12-01T10:13:16;14.68;;;13.07;;
12118;SDS011;6123;48.864;9.200;2022-12-01T10:21:08;14.00;;;12.57;;
12118;SDS011;6123;48.864;9.200;2022-12-01T10:23:58;13.88;;;12.43;;
12118;SDS011;6123;48.864;9.200;2022-12-01T10:30:04;13.02;;;11.73;;
12118;SDS011;6123;48.864;9.200;2022-12-01T10:35:27;13.60;;;12.20;;
12118;SDS011;6123;48.864;9.200;2022-12-01T10:38:03;14.32;;;12.85;;
12118;SDS011;6123;48.864;9.200;2022-12-01T10:40:37;13.95;;;12.45;;
12118;SDS011;6123;48.864;9.200;2022-12-01T10:43:04;15.05;;;13.45;;
12118;SDS011;6123;48.864;9.200;2022-12-01T10:45:39;12.38;;;11.18;;
12118;SDS011;6123;48.864;9.200;2022-12-01T10:48:21;14.32;;;12.93;;
12118;SDS011;6123;48.864;9.200;2022-12-01T10:58:23;15.35;;;13.75;;
12118;SDS011;6123;48.864;9.200;2022-12-01T11:00:54;14.20;;;12.68;;
12118;SDS011;6123;48.864;9.200;2022-12-01T11:03:29;13.65;;;12.15;;
12118;SDS011;6123;48.864;9.200;2022-12-01T11:05:57;13.05;;;11.73;;
12118;SDS011;6123;48.864;9.200;2022-12-01T11:08:35;16.02;;;14.43;;
12118;SDS011;6123;48.864;9.200;2022-12-01T11:13:53;13.88;;;12.32;;
12118;SDS011;6123;48.864;9.200;2022-12-01T11:16:36;16.50;;;13.75;;
12118;SDS011;6123;48.864;9.200;2022-12-01T11:22:22;14.82;;;13.32;;
12118;SDS011;6123;48.864;9.200;2022-12-01T11:25:03;13.27;;;12.00;;
12118;SDS011;6123;48.864;9.200;2022-12-01T11:27:33;12.73;;;11.52;;
12118;SDS011;6123;48.864;9.200;2022-12-01T11:30:44;14.23;;;12.80;;
12118;SDS011;6123;48.864;9.200;2022-12-01T11:33:02;14.05;;;12.32;;
12118;SDS011;6123;48.864;9.200;2022-12-01T11:35:29;13.50;;;12.20;;
12118;SDS011;6123;48.864;9.200;2022-12-01T11:37:57;13.38;;;11.68;;
12118;SDS011;6123;48.864;9.200;2022-12-01T11:40:30;13.57;;;12.10;;
12118;SDS011;6123;48.864;9.200;2022-12-01T11:43:01;14.07;;;12.38;;
12118;SDS011;6123;48.864;9.200;2022-12-01T11:45:29;14.70;;;11.85;;
12118;SDS011;6123;48.864;9.200;2022-12-01T11:50:21;14.30;;;12.30;;
12118;SDS011;6123;48.864;9.200;2022-12-01T11:52:48;13.23;;;11.13;;
12118;SDS011;6123;48.864;9.200;2022-12-01T11:55:19;13.43;;;12.10;;
12118;SDS011;6123;48.864;9.200;2022-12-01T11:57:48;13.18;;;11.75;;
12118;SDS011;6123;48.864;9.200;2022-12-01T12:00:17;13.05;;;11.70;;
12118;SDS011;6123;48.864;9.200;2022-12-01T12:25:34;15.18;;;13.30;;
12118;SDS011;6123;48.864;9.200;2022-12-01T12:36:01;11.68;;;10.48;;
12118;SDS011;6123;48.864;9.200;2022-12-01T12:41:26;12.18;;;10.98;;
12118;SDS011;6123;48.864;9.200;2022-12-01T12:49:44;12.35;;;11.10;;
12118;SDS011;6123;48.864;9.200;2022-12-01T12:52:34;16.45;;;12.57;;
12118;SDS011;6123;48.864;9.200;2022-12-01T12:57:50;13.32;;;11.93;;
12118;SDS011;6123;48.864;9.200;2022-12-01T13:00:20;13.43;;;12.07;;
12118;SDS011;6123;48.864;9.200;2022-12-01T13:05:34;13.60;;;11.82;;
12118;SDS011;6123;48.864;9.200;2022-12-01T13:08:12;13.00;;;11.70;;
12118;SDS011;6123;48.864;9.200;2022-12-01T13:16:01;13.65;;;12.25;;
12118;SDS011;6123;48.864;9.200;2022-12-01T13:18:43;13.18;;;11.77;;
12118;SDS011;6123;48.864;9.200;2022-12-01T13:21:14;13.90;;;11.95;;
12118;SDS011;6123;48.864;9.200;2022-12-01T13:23:43;13.48;;;12.07;;
12118;SDS011;6123;48.864;9.200;2022-12-01T13:26:10;11.98;;;10.70;;
12118;SDS011;6123;48.864;9.200;2022-12-01T13:28:42;12.95;;;11.65;;
12118;SDS011;6123;48.864;9.200;2022-12-01T13:31:14;12.32;;;11.00;;
12118;SDS011;6123;48.864;9.200;2022-12-01T13:33:52;12.13;;;10.93;;
12118;SDS011;6123;48.864;9.200;2022-12-01T13:36:18;13.30;;;11.90;;
12118;SDS011;6123;48.864;9.200;2022-12-01T13:38:56;11.90;;;10.70;;
12118;SDS011;6123;48.864;9.200;2022-12-01T13:41:31;12.88;;;11.57;;
12118;SDS011;6123;48.864;9.200;2022-12-01T13:46:31;13.60;;;12.20;;
12118;SDS011;6123;48.864;9.200;2022-12-01T13:48:59;12.75;;;11.38;;
12118;SDS011;6123;48.864;9.200;2022-12-01T13:51:27;13.32;;;11.88;;
12118;SDS011;6123;48.864;9.200;2022-12-01T13:54:33;12.55;;;11.07;;
12118;SDS011;6123;48.864;9.200;2022-12-01T13:57:02;12.55;;;11.25;;
12118;SDS011;6123;48.864;9.200;2022-12-01T14:02:23;12.80;;;11.48;;
12118;SDS011;6123;48.864;9.200;2022-12-01T14:04:51;13.15;;;11.75;;
12118;SDS011;6123;48.864;9.200;2022-12-01T14:07:21;12.50;;;11.20;;
12118;SDS011;6123;48.864;9.200;2022-12-01T14:09:48;12.52;;;11.23;;
12118;SDS011;6123;48.864;9.200;2022-12-01T14:12:19;12.02;;;10.60;;
12118;SDS011;6123;48.864;9.200;2022-12-01T14:15:01;14.00;;;12.50;;
12118;SDS011;6123;48.864;9.200;2022-12-01T14:17:43;13.52;;;12.13;;
12118;SDS011;6123;48.864;9.200;2022-12-01T14:25:05;12.63;;;11.23;;
12118;SDS011;6123;48.864;9.200;2022-12-01T14:27:44;11.90;;;10.70;;
12118;SDS011;6123;48.864;9.200;2022-12-01T14:36:12;12.65;;;11.38;;
12118;SDS011;6123;48.864;9.200;2022-12-01T14:38:58;12.68;;;11.30;;
12118;SDS011;6123;48.864;9.200;2022-12-01T14:41:29;13.55;;;12.15;;
12118;SDS011;6123;48.864;9.200;2022-12-01T14:44:05;12.77;;;11.57;;
12118;SDS011;6123;48.864;9.200;2022-12-01T14:46:51;13.55;;;11.93;;
12118;SDS011;6123;48.864;9.200;2022-12-01T14:49:24;12.32;;;11.13;;
12118;SDS011;6123;48.864;9.200;2022-12-01T14:51:58;12.77;;;11.48;;
12118;SDS011;6123;48.864;9.200;2022-12-01T14:54:31;12.77;;;11.48;;
12118;SDS011;6123;48.864;9.200;2022-12-01T14:57:07;13.40;;;12.10;;
12118;SDS011;6123;48.864;9.200;2022-12-01T14:59:37;13.38;;;11.15;;
12118;SDS011;6123;48.864;9.200;2022-12-01T15:02:04;11.90;;;10.70;;
12118;SDS011;6123;48.864;9.200;2022-12-01T15:07:48;13.02;;;11.63;;
12118;SDS011;6123;48.864;9.200;2022-12-01T15:10:25;12.82;;;11.43;;
12118;SDS011;6123;48.864;9.200;2022-12-01T15:13:10;13.80;;;12.45;;
12118;SDS011;6123;48.864;9.200;2022-12-01T15:15:51;13.80;;;12.20;;
12118;SDS011;6123;48.864;9.200;2022-12-01T15:18:20;11.88;;;10.68;;
12118;SDS011;6123;48.864;9.200;2022-12-01T15:21:00;13.43;;;12.02;;
12118;SDS011;6123;48.864;9.200;2022-12-01T15:26:30;14.27;;;12.57;;
12118;SDS011;6123;48.864;9.200;2022-12-01T15:29:16;13.73;;;12.07;;
12118;SDS011;6123;48.864;9.200;2022-12-01T15:31:57;12.85;;;11.55;;
12118;SDS011;6123;48.864;9.200;2022-12-01T15:34:24;12.80;;;11.50;;
12118;SDS011;6123;48.864;9.200;2022-12-01T15:36:51;14.03;;;12.73;;
12118;SDS011;6123;48.864;9.200;2022-12-01T15:39:19;13.38;;;11.93;;
12118;SDS011;6123;48.864;9.200;2022-12-01T15:41:50;13.57;;;12.20;;
12118;SDS011;6123;48.864;9.200;2022-12-01T15:44:31;14.18;;;11.45;;
12118;SDS011;6123;48.864;9.200;2022-12-01T15:46:58;13.25;;;11.82;;
12118;SDS011;6123;48.864;9.200;2022-12-01T15:49:48;13.82;;;12.43;;
12118;SDS011;6123;48.864;9.200;2022-12-01T15:52:16;13.25;;;11.50;;
12118;SDS011;6123;48.864;9.200;2022-12-01T15:54:46;14.70;;;13.20;;
12118;SDS011;6123;48.864;9.200;2022-12-01T15:57:16;12.95;;;11.57;;
12118;SDS011;6123;48.864;9.200;2022-12-01T15:59:44;14.40;;;12.95;;
12118;SDS011;6123;48.864;9.200;2022-12-01T16:02:30;27.83;;;25.52;;
12118;SDS011;6123;48.864;9.200;2022-12-01T16:05:04;14.43;;;13.00;;
12118;SDS011;6123;48.864;9.200;2022-12-01T16:07:41;15.25;;;13.68;;
12118;SDS011;6123;48.864;9.200;2022-12-01T16:10:22;21.20;;;19.27;;
12118;SDS011;6123;48.864;9.200;2022-12-01T16:12:52;88.03;;;81.32;;
12118;SDS011;6123;48.864;9.200;2022-12-01T16:15:18;85.72;;;78.75;;
12118;SDS011;6123;48.864;9.200;2022-12-01T16:17:50;163.70;;;141.20;;
12118;SDS011;6123;48.864;9.200;2022-12-01T16:22:56;66.40;;;54.17;;
12118;SDS011;6123;48.864;9.200;2022-12-01T16:25:42;21.73;;;19.42;;
12118;SDS011;6123;48.864;9.200;2022-12-01T16:28:22;28.30;;;22.92;;
12118;SDS011;6123;48.864;9.200;2022-12-01T16:30:54;53.13;;;48.53;;
12118;SDS011;6123;48.864;9.200;2022-12-01T16:33:24;49.40;;;45.17;;
12118;SDS011;6123;48.864;9.200;2022-12-01T16:35:51;28.13;;;25.60;;
12118;SDS011;6123;48.864;9.200;2022-12-01T16:38:18;14.88;;;13.25;;
12118;SDS011;6123;48.864;9.200;2022-12-01T16:40:47;62.42;;;57.70;;
12118;SDS011;6123;48.864;9.200;2022-12-01T16:43:16;83.15;;;76.82;;
12118;SDS011;6123;48.864;9.200;2022-12-01T16:45:43;20.55;;;18.52;;
12118;SDS011;6123;48.864;9.200;2022-12-01T16:48:14;14.43;;;13.00;;
12118;SDS011;6123;48.864;9.200;2022-12-01T16:50:45;22.38;;;19.98;;
12118;SDS011;6123;48.864;9.200;2022-12-01T16:53:12;29.50;;;26.38;;
12118;SDS011;6123;48.864;9.200;2022-12-01T16:58:19;18.75;;;16.75;;
12118;SDS011;6123;48.864;9.200;2022-12-01T17:00:47;16.38;;;14.55;;
12118;SDS011;6123;48.864;9.200;2022-12-01T17:03:19;16.02;;;12.90;;
12118;SDS011;6123;48.864;9.200;2022-12-01T17:05:50;22.70;;;20.33;;
12118;SDS011;6123;48.864;9.200;2022-12-01T17:08:16;15.55;;;13.93;;
12118;SDS011;6123;48.864;9.200;2022-12-01T17:10:43;16.25;;;14.10;;
12118;SDS011;6123;48.864;9.200;2022-12-01T17:13:10;17.02;;;15.23;;
12118;SDS011;6123;48.864;9.200;2022-12-01T17:15:44;17.40;;;15.48;;
12118;SDS011;6123;48.864;9.200;2022-12-01T17:18:11;16.20;;;14.43;;
12118;SDS011;6123;48.864;9.200;2022-12-01T17:20:38;16.38;;;14.70;;
12118;SDS011;6123;48.864;9.200;2022-12-01T17:23:03;26.85;;;21.63;;
12118;SDS011;6123;48.864;9.200;2022-12-01T17:25:29;17.42;;;15.15;;
12118;SDS011;6123;48.864;9.200;2022-12-01T17:27:55;17.60;;;15.35;;
12118;SDS011;6123;48.864;9.200;2022-12-01T17:30:23;16.45;;;14.50;;
12118;SDS011;6123;48.864;9.200;2022-12-01T17:32:49;16.35;;;14.60;;
12118;SDS011;6123;48.864;9.200;2022-12-01T17:35:15;16.83;;;15.13;;
12118;SDS011;6123;48.864;9.200;2022-12-01T17:37:43;17.35;;;15.57;;
12118;SDS011;6123;48.864;9.200;2022-12-01T17:40:09;15.98;;;14.23;;